Incirlik Air Base

Airport
ICAO code: 
LTAG
IATA Code: 
UAB
Summary
ICAO Region: 
EUR
Territory: 
Location: 
Incirlik, Adana
Serving: 
Adana
Elevation: 
240 ft
Coordinates: 
Aerial View: 
37° 0' 6.998" N, 35° 25' 32.999" E
Airport GND: 
Foreign Object Debris
Metar
Observation
LTAG 071650Z 07007KT CAVOK 17/05 Q1012 NOSIG
Station
Adana / Incirlik
Date/Time
2021-12-07 16:50:00
Wind direction
70°
Wind speed
07 kts
Lowest cloud amount
clouds and visibility OK
Temperature
17°C
Dew point
5°C
Humidity
45%
QNH
1012 hPa
Weather condition
n/a

Incirlik Air Base is a United States Air Force base, located near İncirlik, Turkey. Incirlik Air Base is located 8 km east of Adana, Turkey.

Runways

Designator Length Width Surface Rops
5/23 3048 45 CON Yes/Yes
Airport map: 
Aerial View: 

SKYbrary Partners:

Safety knowledge contributed by: